Time;durP1;ratioP1;P1;durP2;ratioP2;P2;SDS_P1;SDS_P2;PMS_P1;PMS_P2;Temp;Humidity;BMP_temperature;BMP_pressure;BME280_temperature;BME280_humidity;BME280_pressure;Samples;Min_cycle;Max_cycle;Signal;HPM_P1;HPM_P2
2022/03/23 06:30:50;;;;;;;4.50;4.10;;;24.40;42.90;;;;;;4973480;28;20872;-81
2022/03/23 06:33:17;;;;;;;4.00;3.70;;;24.30;43.20;;;;;;4975109;28;20466;-81
2022/03/23 06:35:44;;;;;;;5.87;4.53;;;24.40;43.30;;;;;;4975055;28;20445;-82
2022/03/23 06:38:11;;;;;;;4.53;4.23;;;24.50;43.10;;;;;;4975013;28;20456;-81
2022/03/23 06:40:38;;;;;;;5.33;4.60;;;24.50;43.10;;;;;;4974556;28;20447;-85
2022/03/23 06:43:04;;;;;;;6.47;4.63;;;24.50;42.90;;;;;;4975218;28;20540;-82
2022/03/23 06:45:31;;;;;;;4.80;4.33;;;24.50;42.80;;;;;;4974763;28;20489;-82
2022/03/23 06:47:59;;;;;;;5.13;4.27;;;24.50;43.20;;;;;;4974980;28;20448;-82
2022/03/23 06:50:26;;;;;;;7.13;4.60;;;24.50;43.40;;;;;;4974761;28;20800;-82
2022/03/23 06:52:53;;;;;;;5.03;4.63;;;24.50;43.50;;;;;;4974696;28;20453;-87
2022/03/23 06:55:20;;;;;;;7.07;3.80;;;24.60;43.60;;;;;;4974802;28;20449;-87
2022/03/23 07:01:08;;;;;;;13.27;3.90;;;24.60;43.80;;;;;;4974737;28;20436;-85
2022/03/23 07:03:36;;;;;;;4.60;4.20;;;24.50;43.80;;;;;;4974534;28;20443;-87
2022/03/23 07:06:03;;;;;;;6.03;5.53;;;24.60;43.90;;;;;;4974403;28;20491;-86
2022/03/23 07:11:14;;;;;;;5.30;4.90;;;24.60;43.30;;;;;;4974594;28;20496;-84
2022/03/23 07:13:41;;;;;;;5.17;4.70;;;24.60;43.70;;;;;;4974357;28;20442;-85
2022/03/23 07:16:08;;;;;;;5.30;4.80;;;24.60;43.80;;;;;;4974659;28;20453;-86
2022/03/23 07:18:36;;;;;;;5.83;5.10;;;24.70;44.00;;;;;;4974008;28;20457;-87
2022/03/23 07:21:04;;;;;;;4.80;4.40;;;24.70;43.40;;;;;;4974127;28;20446;-84
2022/03/23 07:23:31;;;;;;;6.13;4.50;;;24.70;43.50;;;;;;4975553;28;20999;-84
2022/03/23 07:25:57;;;;;;;6.53;5.80;;;24.70;43.60;;;;;;4978327;28;20497;-85
2022/03/23 07:28:24;;;;;;;6.63;5.70;;;24.70;43.60;;;;;;4977979;28;20452;-84
2022/03/23 07:30:51;;;;;;;6.57;5.57;;;24.90;43.60;;;;;;4978234;28;20473;-85
2022/03/23 07:33:18;;;;;;;5.60;5.20;;;24.70;43.40;;;;;;4978563;28;20445;-84
2022/03/23 07:35:46;;;;;;;5.60;5.10;;;24.70;43.30;;;;;;4978242;28;20447;-85
2022/03/23 07:38:13;;;;;;;6.27;5.77;;;24.70;43.30;;;;;;4978266;28;20854;-85
2022/03/23 07:40:40;;;;;;;6.07;5.47;;;24.70;43.20;;;;;;4978973;28;20772;-85
2022/03/23 07:43:07;;;;;;;6.00;5.50;;;24.70;43.10;;;;;;4978059;28;20441;-85
2022/03/23 07:45:34;;;;;;;6.17;5.57;;;24.90;43.30;;;;;;4977835;28;20511;-83
2022/03/23 07:48:01;;;;;;;6.07;5.60;;;24.80;43.20;;;;;;4977759;28;20449;-85
2022/03/23 07:50:28;;;;;;;5.40;5.00;;;24.80;43.10;;;;;;4977681;28;20445;-84
2022/03/23 07:52:57;;;;;;;4.77;4.47;;;24.80;43.00;;;;;;4977805;28;20792;-87
2022/03/23 07:55:23;;;;;;;6.43;5.47;;;24.80;43.00;;;;;;4960810;28;20499;-84
2022/03/23 07:57:50;;;;;;;5.07;4.67;;;24.80;43.00;;;;;;4977833;28;20452;-83
2022/03/23 08:00:17;;;;;;;5.40;4.90;;;24.90;42.90;;;;;;4977379;28;20451;-82
2022/03/23 08:02:45;;;;;;;5.20;4.73;;;24.90;42.90;;;;;;4977825;28;20449;-84
2022/03/23 08:05:11;;;;;;;6.03;5.30;;;24.90;42.90;;;;;;4977246;28;20472;-86
2022/03/23 08:07:38;;;;;;;5.67;5.27;;;24.90;42.80;;;;;;4977603;28;20452;-85
2022/03/23 08:10:07;;;;;;;4.53;4.20;;;24.90;42.70;;;;;;4977297;28;20488;-86
2022/03/23 08:12:35;;;;;;;4.43;4.03;;;25.00;42.80;;;;;;4977161;28;20464;-86
2022/03/23 08:15:02;;;;;;;4.80;4.40;;;24.90;42.80;;;;;;4977149;28;20972;-84
2022/03/23 08:17:29;;;;;;;4.90;4.50;;;25.00;42.80;;;;;;4977508;28;20477;-85
2022/03/23 08:22:40;;;;;;;4.67;4.17;;;25.00;42.70;;;;;;4977179;28;20792;-85
2022/03/23 08:25:09;;;;;;;4.67;4.27;;;25.00;42.80;;;;;;4977059;28;20485;-85
2022/03/23 08:27:35;;;;;;;5.40;5.00;;;25.00;42.70;;;;;;4977220;28;20450;-85
2022/03/23 08:30:02;;;;;;;4.67;4.17;;;25.10;42.80;;;;;;4976981;28;20485;-83
2022/03/23 08:32:29;;;;;;;4.70;4.30;;;25.00;42.70;;;;;;4976827;28;20446;-85
2022/03/23 08:34:56;;;;;;;5.10;4.70;;;25.10;42.80;;;;;;4976507;28;20453;-85
2022/03/23 08:37:23;;;;;;;4.40;4.10;;;25.10;42.90;;;;;;4977181;28;20453;-85
2022/03/23 08:39:49;;;;;;;4.50;4.13;;;25.20;42.90;;;;;;4977012;28;20452;-86
2022/03/23 08:42:17;;;;;;;3.93;3.67;;;25.10;42.90;;;;;;4977179;28;20441;-85
2022/03/23 08:44:45;;;;;;;5.07;4.67;;;25.10;42.90;;;;;;4976945;28;20807;-85
2022/03/23 08:47:12;;;;;;;5.13;4.27;;;25.20;43.00;;;;;;4976797;28;20560;-87
2022/03/23 08:49:39;;;;;;;10.00;4.10;;;25.20;43.10;;;;;;4976560;28;20449;-85
2022/03/23 08:52:07;;;;;;;5.20;4.80;;;25.20;43.10;;;;;;4976916;28;20453;-85
2022/03/23 08:54:34;;;;;;;4.30;4.00;;;25.20;43.20;;;;;;4976739;28;20526;-85
2022/03/23 08:57:00;;;;;;;4.40;4.00;;;25.20;43.20;;;;;;4976656;28;20457;-85
2022/03/23 08:59:30;;;;;;;4.30;3.90;;;25.20;43.30;;;;;;4976447;28;20932;-83
2022/03/23 09:01:57;;;;;;;5.07;4.67;;;25.30;43.40;;;;;;4976685;28;20461;-86
2022/03/23 09:04:24;;;;;;;5.87;5.37;;;25.30;43.50;;;;;;4976290;28;20453;-86
2022/03/23 09:06:51;;;;;;;4.10;3.80;;;25.30;43.50;;;;;;4976664;28;20489;-87
2022/03/23 09:09:18;;;;;;;5.07;4.67;;;25.40;43.70;;;;;;4976481;28;20811;-87
2022/03/23 09:11:45;;;;;;;8.20;7.40;;;25.40;43.60;;;;;;4976256;28;20454;-85
2022/03/23 09:14:11;;;;;;;13.00;11.70;;;25.30;43.00;;;;;;4976143;28;20449;-85
2022/03/23 09:16:40;;;;;;;14.20;12.43;;;25.30;42.90;;;;;;4976163;28;20548;-86
2022/03/23 09:19:07;;;;;;;9.20;8.43;;;25.30;42.60;;;;;;4976128;28;20480;-83
2022/03/23 09:21:34;;;;;;;20.17;14.80;;;25.30;42.50;;;;;;4976373;28;20468;-83
2022/03/23 09:24:01;;;;;;;11.50;10.40;;;25.20;42.60;;;;;;4976338;28;20516;-84
2022/03/23 09:26:28;;;;;;;11.97;10.70;;;25.30;42.60;;;;;;4976173;28;20552;-82
2022/03/23 09:28:56;;;;;;;11.90;7.83;;;25.20;42.50;;;;;;4975868;28;20450;-81
2022/03/23 09:31:22;;;;;;;7.40;6.50;;;25.10;43.10;;;;;;4976533;28;20540;-83
2022/03/23 09:33:51;;;;;;;8.13;7.03;;;25.10;43.10;;;;;;4975974;28;20804;-82
2022/03/23 09:39:03;;;;;;;8.53;7.70;;;25.10;43.00;;;;;;4976116;28;20408;-83
2022/03/23 09:41:32;;;;;;;9.23;8.17;;;25.00;43.00;;;;;;4975932;28;20453;-82
2022/03/23 09:43:59;;;;;;;8.93;8.00;;;25.00;43.00;;;;;;4975898;28;20826;-82
2022/03/23 09:46:26;;;;;;;10.13;7.57;;;25.00;42.80;;;;;;4975396;28;20865;-82
2022/03/23 09:48:55;;;;;;;7.40;6.90;;;25.00;42.80;;;;;;4975442;28;20516;-85
2022/03/23 09:51:22;;;;;;;10.57;8.70;;;25.00;42.90;;;;;;4975389;28;20933;-89
2022/03/23 09:53:49;;;;;;;10.23;9.17;;;25.00;42.80;;;;;;4975570;28;20453;-86
2022/03/23 09:56:16;;;;;;;13.57;9.73;;;25.10;42.70;;;;;;4975617;28;20459;-86
2022/03/23 09:58:44;;;;;;;8.70;8.03;;;25.10;42.60;;;;;;4975607;28;20461;-87
2022/03/23 10:01:49;;;;;;;9.50;8.37;;;25.30;42.80;;;;;;4975572;28;20446;-88
2022/03/23 10:04:52;;;;;;;8.47;6.83;;;25.10;43.30;;;;;;4975518;28;20512;-85
2022/03/23 10:07:27;;;;;;;10.00;7.50;;;25.10;42.80;;;;;;4975262;28;20489;-85
2022/03/23 10:10:54;;;;;;;7.20;6.50;;;25.10;43.00;;;;;;4975821;28;20433;-86
2022/03/23 10:13:54;;;;;;;9.03;6.30;;;25.20;43.00;;;;;;4893755;29;20454;-85
2022/03/23 10:16:56;;;;;;;7.07;6.47;;;25.20;43.10;;;;;;4915363;29;20810;-85
2022/03/23 10:19:23;;;;;;;7.27;6.40;;;25.20;43.20;;;;;;4958545;28;20528;-85
2022/03/23 10:21:51;;;;;;;6.40;5.83;;;25.20;43.30;;;;;;4957625;28;20449;-87
2022/03/23 10:24:36;;;;;;;6.20;5.60;;;25.20;43.30;;;;;;4975255;28;20547;-86
2022/03/23 10:27:11;;;;;;;6.20;5.63;;;25.30;43.30;;;;;;4975982;28;20484;-87
2022/03/23 10:29:45;;;;;;;6.47;5.87;;;25.30;43.40;;;;;;4974898;28;20434;-87
2022/03/23 10:32:13;;;;;;;5.87;5.47;;;25.30;43.50;;;;;;4975085;28;20439;-86
2022/03/23 10:34:48;;;;;;;6.10;5.60;;;25.40;43.50;;;;;;4974762;28;20453;-86
2022/03/23 10:37:21;;;;;;;5.40;5.00;;;25.40;43.50;;;;;;4975118;28;20463;-86
2022/03/23 10:39:50;;;;;;;5.40;5.00;;;25.40;43.60;;;;;;4975355;28;20439;-87
2022/03/23 10:42:18;;;;;;;7.90;6.13;;;25.40;43.60;;;;;;4974729;28;20952;-86
2022/03/23 10:44:46;;;;;;;6.07;5.47;;;25.50;43.60;;;;;;4974926;28;20442;-86
2022/03/23 10:47:24;;;;;;;5.23;4.83;;;25.50;43.70;;;;;;4974813;28;20489;-86
2022/03/23 10:49:51;;;;;;;5.50;5.00;;;25.50;43.70;;;;;;4974853;28;20442;-87
2022/03/23 10:52:19;;;;;;;5.53;4.67;;;25.50;43.70;;;;;;4975327;28;20992;-91
2022/03/23 10:54:59;;;;;;;5.90;5.47;;;25.50;43.70;;;;;;4974952;28;20452;-88
2022/03/23 10:58:02;;;;;;;4.90;4.40;;;25.60;43.80;;;;;;4974859;28;20433;-87
2022/03/23 11:00:32;;;;;;;7.27;5.73;;;25.60;43.80;;;;;;4971776;28;20532;-88
2022/03/23 11:02:59;;;;;;;5.20;4.70;;;25.60;43.90;;;;;;4981465;28;20932;-85
2022/03/23 11:05:33;;;;;;;5.33;4.93;;;25.60;43.90;;;;;;4981530;28;20470;-87
2022/03/23 11:08:07;;;;;;;4.57;4.27;;;25.70;43.90;;;;;;4981239;28;20567;-85
2022/03/23 11:16:09;;;;;;;5.13;4.73;;;25.70;44.00;;;;;;4981685;28;20456;-87
2022/03/23 11:18:37;;;;;;;4.70;4.30;;;25.70;44.00;;;;;;4981486;28;20455;-89
2022/03/23 11:21:04;;;;;;;5.07;4.67;;;25.70;44.10;;;;;;4981303;28;20445;-87
2022/03/23 11:23:33;;;;;;;4.67;4.27;;;25.70;44.00;;;;;;4981344;28;20456;-88
2022/03/23 11:26:03;;;;;;;5.40;4.43;;;25.80;44.00;;;;;;4981020;28;20480;-85
2022/03/23 11:28:33;;;;;;;4.40;4.10;;;25.80;44.00;;;;;;4982013;28;20448;-86
2022/03/23 11:31:03;;;;;;;4.60;4.30;;;25.80;44.00;;;;;;4980966;28;20547;-85
2022/03/23 11:33:32;;;;;;;5.50;5.10;;;25.90;44.10;;;;;;4981130;28;20472;-86
2022/03/23 11:36:00;;;;;;;3.90;3.60;;;25.90;44.10;;;;;;4981208;28;20536;-87
2022/03/23 11:38:28;;;;;;;4.80;4.40;;;25.90;44.10;;;;;;4981315;28;20448;-87
2022/03/23 11:40:56;;;;;;;4.83;4.43;;;25.90;44.10;;;;;;4980792;28;20445;-88
2022/03/23 11:43:26;;;;;;;4.60;4.20;;;25.90;44.10;;;;;;4980676;28;20451;-85
2022/03/23 11:45:55;;;;;;;4.30;4.00;;;25.90;44.10;;;;;;4980629;28;20444;-82
2022/03/23 11:48:48;;;;;;;5.10;4.43;;;25.90;44.10;;;;;;4980405;28;20460;-82
2022/03/23 11:51:29;;;;;;;4.30;4.00;;;26.00;44.10;;;;;;4974221;28;20472;-82
2022/03/23 11:54:03;;;;;;;5.40;4.47;;;26.00;44.10;;;;;;4980670;28;20797;-80
2022/03/23 11:56:45;;;;;;;4.73;3.90;;;26.00;44.00;;;;;;4980822;28;20455;-87
2022/03/23 11:59:22;;;;;;;4.40;4.10;;;26.00;44.00;;;;;;4963995;28;20452;-88
2022/03/23 12:01:50;;;;;;;4.50;4.17;;;26.00;43.90;;;;;;4980745;28;20464;-84
2022/03/23 12:04:19;;;;;;;3.97;3.67;;;26.00;44.00;;;;;;4980744;28;20449;-85
2022/03/23 12:06:47;;;;;;;4.30;4.00;;;26.00;44.00;;;;;;4980664;28;20547;-86
2022/03/23 12:09:34;;;;;;;4.10;3.80;;;26.00;44.00;;;;;;4980754;28;20453;-83
2022/03/23 12:12:01;;;;;;;4.50;4.20;;;26.00;43.90;;;;;;4976973;28;20440;-84
2022/03/23 12:14:31;;;;;;;3.93;3.63;;;26.00;43.90;;;;;;4977626;28;20445;-84
2022/03/23 12:17:09;;;;;;;3.47;3.17;;;26.20;44.50;;;;;;4977246;28;20508;-84
2022/03/23 12:20:06;;;;;;;3.73;3.47;;;26.00;44.00;;;;;;4977720;28;20443;-83
2022/03/23 12:22:54;;;;;;;5.03;4.07;;;26.10;44.00;;;;;;4977654;28;20446;-85
2022/03/23 12:25:25;;;;;;;4.87;3.93;;;26.10;44.10;;;;;;4977945;28;20438;-85
2022/03/23 12:27:59;;;;;;;5.20;3.97;;;26.10;44.10;;;;;;4977012;28;20999;-84
2022/03/23 12:34:04;;;;;;;4.87;4.37;;;26.10;44.00;;;;;;4976080;28;20866;-85
2022/03/23 12:39:31;;;;;;;5.70;4.37;;;26.00;42.90;;;;;;4977417;28;20409;-83
2022/03/23 12:41:59;;;;;;;6.23;5.63;;;26.10;43.20;;;;;;4977094;28;20445;-85
2022/03/23 12:44:31;;;;;;;6.87;6.17;;;26.00;43.00;;;;;;4976485;28;20500;-83
2022/03/23 12:47:04;;;;;;;7.87;5.70;;;26.00;42.90;;;;;;4976735;28;20495;-82
2022/03/23 12:58:05;;;;;;;8.30;6.80;;;26.00;42.40;;;;;;4977193;28;20474;-89
2022/03/23 13:00:34;;;;;;;5.47;4.93;;;25.90;42.20;;;;;;4976604;28;20446;-83
2022/03/23 13:03:41;;;;;;;8.23;7.43;;;25.90;41.80;;;;;;4976821;28;20448;-83
2022/03/23 13:09:32;;;;;;;5.40;4.90;;;25.90;42.00;;;;;;4976793;28;20658;-83
2022/03/23 13:11:59;;;;;;;5.73;5.23;;;25.90;42.10;;;;;;4977440;28;20481;-84
2022/03/23 13:14:27;;;;;;;6.73;5.80;;;25.90;42.10;;;;;;4976621;28;20445;-84
2022/03/23 13:16:58;;;;;;;7.47;5.60;;;25.90;42.20;;;;;;4977127;28;20531;-84
2022/03/23 13:19:25;;;;;;;7.00;5.53;;;26.00;42.30;;;;;;4976784;28;20438;-85
2022/03/23 13:21:51;;;;;;;5.63;5.13;;;26.00;42.40;;;;;;4975743;28;20452;-84
2022/03/23 13:24:25;;;;;;;5.00;4.60;;;26.00;42.40;;;;;;4975924;28;20968;-83
2022/03/23 13:26:56;;;;;;;4.93;4.53;;;26.00;42.40;;;;;;4976291;28;20481;-83
2022/03/23 13:29:25;;;;;;;4.90;4.43;;;26.00;42.50;;;;;;4976357;28;20437;-83
2022/03/23 13:31:52;;;;;;;5.10;4.47;;;26.00;42.50;;;;;;4976002;28;20445;-83
2022/03/23 13:34:21;;;;;;;4.63;4.33;;;26.00;42.60;;;;;;4975766;28;20477;-83
2022/03/23 13:36:50;;;;;;;5.13;4.03;;;26.10;42.60;;;;;;4976186;28;20465;-83
2022/03/23 13:39:19;;;;;;;3.90;3.60;;;26.10;42.70;;;;;;4975731;28;20489;-83
2022/03/23 13:47:31;;;;;;;5.30;3.60;;;26.10;42.80;;;;;;4975565;28;20593;-85
2022/03/23 13:49:58;;;;;;;4.30;4.00;;;26.10;42.80;;;;;;4975463;28;20426;-83
2022/03/23 13:59:10;;;;;;;3.70;3.43;;;26.10;42.90;;;;;;4976134;28;20967;-83
2022/03/23 14:01:42;;;;;;;4.47;4.10;;;26.00;43.00;;;;;;4975285;28;20442;-82
2022/03/23 14:04:10;;;;;;;4.57;4.17;;;26.20;43.10;;;;;;4975620;28;20459;-82
2022/03/23 14:09:49;;;;;;;3.60;3.30;;;26.10;43.00;;;;;;4974885;28;20980;-79
2022/03/23 14:12:16;;;;;;;4.10;3.80;;;26.10;43.10;;;;;;4976327;28;20520;-81
2022/03/23 14:14:44;;;;;;;4.37;4.07;;;26.00;42.50;;;;;;4975304;28;20460;-83
2022/03/23 14:17:23;;;;;;;5.17;4.77;;;26.00;42.50;;;;;;4975958;28;20801;-82
2022/03/23 14:19:52;;;;;;;5.57;5.07;;;26.00;42.40;;;;;;4975371;28;20433;-83
2022/03/23 14:22:22;;;;;;;6.73;6.13;;;25.90;41.90;;;;;;4975432;28;20449;-82
2022/03/23 14:24:49;;;;;;;6.43;5.83;;;25.90;41.80;;;;;;4976247;28;20527;-83
2022/03/23 14:27:19;;;;;;;6.53;6.03;;;25.90;41.60;;;;;;4975566;28;20492;-81
2022/03/23 14:30:18;;;;;;;8.03;7.40;;;25.80;41.40;;;;;;4957863;28;20484;-82
2022/03/23 14:32:55;;;;;;;6.90;6.30;;;25.90;41.30;;;;;;4974710;28;20438;-82
2022/03/23 14:35:24;;;;;;;7.20;6.60;;;25.80;41.10;;;;;;4974924;28;20969;-80
2022/03/23 14:37:55;;;;;;;7.30;6.57;;;25.70;41.00;;;;;;4974764;28;20449;-81
2022/03/23 14:40:27;;;;;;;9.40;8.50;;;25.70;41.00;;;;;;4975258;28;20453;-81
2022/03/23 14:42:57;;;;;;;7.43;6.53;;;25.70;40.90;;;;;;4969699;28;20545;-82
2022/03/23 14:45:35;;;;;;;7.50;6.67;;;25.70;40.90;;;;;;4975004;28;20449;-82
2022/03/23 14:48:16;;;;;;;6.90;6.30;;;25.70;40.80;;;;;;4974920;28;20514;-82
2022/03/23 14:50:43;;;;;;;7.17;6.57;;;25.70;40.80;;;;;;4975080;28;20781;-85
2022/03/23 14:53:10;;;;;;;10.00;7.50;;;25.60;40.80;;;;;;4974858;28;20449;-82
2022/03/23 14:55:38;;;;;;;7.30;6.70;;;25.70;40.70;;;;;;4974950;28;20478;-82
2022/03/23 14:58:05;;;;;;;8.10;7.30;;;25.60;40.70;;;;;;4974836;28;20457;-82
2022/03/23 15:00:32;;;;;;;8.30;7.50;;;25.60;40.80;;;;;;4974951;28;20805;-82
2022/03/23 15:02:59;;;;;;;7.27;6.67;;;25.70;40.80;;;;;;4974814;28;20441;-83
2022/03/23 15:13:41;;;;;;;7.20;6.53;;;25.60;41.20;;;;;;4965954;28;20538;-82
2022/03/23 15:16:08;;;;;;;6.30;5.60;;;25.60;41.30;;;;;;4974491;28;20448;-82
2022/03/23 15:18:35;;;;;;;6.30;5.80;;;25.60;41.30;;;;;;4974690;28;20457;-82
2022/03/23 15:21:04;;;;;;;5.37;4.87;;;25.60;41.30;;;;;;4974474;28;20458;-82
2022/03/23 15:23:30;;;;;;;6.17;5.37;;;25.60;41.40;;;;;;4974660;28;20769;-83
2022/03/23 15:25:57;;;;;;;6.03;5.53;;;25.60;41.40;;;;;;4974646;28;20532;-85
2022/03/23 15:28:24;;;;;;;5.80;5.20;;;25.60;41.40;;;;;;4974523;28;20492;-82
2022/03/23 15:30:51;;;;;;;5.30;4.80;;;25.60;41.50;;;;;;4974598;28;20446;-83
2022/03/23 15:33:20;;;;;;;5.23;4.83;;;25.60;41.50;;;;;;4974192;28;20477;-82
2022/03/23 15:35:47;;;;;;;5.07;4.67;;;25.60;41.60;;;;;;4974518;28;20528;-82
2022/03/23 15:38:16;;;;;;;4.90;4.60;;;25.50;41.50;;;;;;4975009;28;20453;-82
2022/03/23 15:40:43;;;;;;;5.20;4.70;;;25.60;41.60;;;;;;4974168;28;20453;-82
2022/03/23 15:43:10;;;;;;;4.93;4.53;;;25.50;41.50;;;;;;4974224;28;20445;-82
2022/03/23 15:45:38;;;;;;;5.80;5.30;;;25.50;41.50;;;;;;4975644;28;20808;-82
2022/03/23 15:48:07;;;;;;;5.80;5.30;;;25.50;41.50;;;;;;4978129;28;20477;-82
2022/03/23 15:50:34;;;;;;;4.70;4.40;;;25.50;41.60;;;;;;4978184;28;20441;-82
2022/03/23 15:53:02;;;;;;;4.80;4.40;;;25.50;41.50;;;;;;4978106;28;20443;-82
2022/03/23 15:55:31;;;;;;;5.27;4.77;;;25.50;41.50;;;;;;4977934;28;20464;-79
2022/03/23 15:57:59;;;;;;;5.03;4.63;;;25.50;41.80;;;;;;4977893;28;20456;-81
2022/03/23 16:00:26;;;;;;;5.67;5.00;;;25.50;42.00;;;;;;4977629;28;20908;-81
2022/03/23 16:02:53;;;;;;;7.07;6.47;;;25.50;41.80;;;;;;4977536;28;20453;-81
2022/03/23 16:05:20;;;;;;;5.83;5.20;;;25.50;41.70;;;;;;4978288;28;20455;-81
2022/03/23 16:07:48;;;;;;;5.40;5.00;;;25.50;41.70;;;;;;4977682;28;20515;-81
2022/03/23 16:10:15;;;;;;;7.90;4.60;;;25.50;41.70;;;;;;4977616;28;20844;-81
2022/03/23 16:12:43;;;;;;;5.07;4.50;;;25.50;41.80;;;;;;4978019;28;20445;-81
2022/03/23 16:15:10;;;;;;;5.87;4.63;;;25.50;41.80;;;;;;4977596;28;20816;-81
2022/03/23 16:17:37;;;;;;;5.50;5.00;;;25.50;41.70;;;;;;4977149;28;20951;-81
2022/03/23 16:20:06;;;;;;;5.60;5.10;;;25.50;41.80;;;;;;4977453;28;20457;-81
2022/03/23 16:22:35;;;;;;;5.17;4.80;;;25.50;41.70;;;;;;4977189;28;20457;-81
2022/03/23 16:25:04;;;;;;;4.60;4.20;;;25.50;41.70;;;;;;4977149;28;20468;-82
2022/03/23 16:27:31;;;;;;;4.40;4.10;;;25.50;41.80;;;;;;4977411;28;20528;-81
2022/03/23 16:33:21;;;;;;;4.60;4.30;;;25.50;41.80;;;;;;4977150;28;20449;-80
2022/03/23 16:35:48;;;;;;;4.97;4.60;;;25.50;42.20;;;;;;4977347;28;20441;-80
2022/03/23 16:38:19;;;;;;;5.23;4.67;;;25.40;42.10;;;;;;4978436;28;20944;-79
2022/03/23 16:40:46;;;;;;;5.13;4.70;;;25.40;42.00;;;;;;4981039;28;20437;-79
2022/03/23 16:43:14;;;;;;;4.17;3.87;;;25.30;42.20;;;;;;4978748;28;20446;-79
2022/03/23 16:45:41;;;;;;;15.80;8.77;;;25.30;42.40;;;;;;4977261;28;20503;-79
2022/03/23 16:48:08;;;;;;;7.50;6.80;;;25.30;42.00;;;;;;4959951;28;20493;-79
2022/03/23 16:50:36;;;;;;;6.40;5.90;;;25.20;42.00;;;;;;4977565;28;20454;-83
2022/03/23 16:53:03;;;;;;;6.00;5.27;;;25.20;42.40;;;;;;4977360;28;20460;-79
2022/03/23 16:55:30;;;;;;;6.50;5.90;;;25.20;42.50;;;;;;4977392;28;20875;-81
2022/03/23 16:57:58;;;;;;;7.00;6.40;;;25.10;42.40;;;;;;4975993;28;20445;-80
2022/03/23 17:00:25;;;;;;;6.50;5.90;;;25.10;42.30;;;;;;4976767;28;20442;-82
2022/03/23 17:13:54;;;;;;;11.17;10.17;;;25.00;41.00;;;;;;4977037;28;20594;-78
2022/03/23 17:16:23;;;;;;;10.00;9.00;;;25.00;41.50;;;;;;4976437;28;20535;-77
2022/03/23 17:18:49;;;;;;;10.63;9.60;;;25.00;41.60;;;;;;4976521;28;20553;-78
2022/03/23 17:21:18;;;;;;;9.57;8.70;;;24.90;41.70;;;;;;4976434;28;20446;-89
2022/03/23 17:23:46;;;;;;;9.53;7.97;;;25.00;41.90;;;;;;4976150;28;20481;-84
2022/03/23 17:26:16;;;;;;;9.30;6.47;;;25.00;41.80;;;;;;4976394;28;20449;-80
2022/03/23 17:28:45;;;;;;;9.00;7.23;;;25.00;41.90;;;;;;4976174;28;20489;-79
2022/03/23 17:31:12;;;;;;;7.63;6.93;;;25.00;42.00;;;;;;4975986;28;20528;-79
2022/03/23 17:33:39;;;;;;;9.30;7.60;;;24.90;42.10;;;;;;4976483;28;20469;-91
2022/03/23 17:36:06;;;;;;;8.23;7.43;;;24.90;42.10;;;;;;4976340;28;20448;-92
2022/03/23 17:38:34;;;;;;;9.10;8.17;;;24.90;42.00;;;;;;4975859;28;20449;-87
2022/03/23 17:41:01;;;;;;;9.57;8.77;;;24.90;42.10;;;;;;4976150;28;20800;-79
2022/03/23 17:43:28;;;;;;;10.20;6.43;;;24.90;42.00;;;;;;4976869;28;20453;-79
2022/03/23 17:45:54;;;;;;;7.70;6.93;;;24.90;42.00;;;;;;4975711;28;20449;-87
2022/03/23 17:48:21;;;;;;;7.87;7.10;;;24.90;42.00;;;;;;4976021;28;20558;-89
2022/03/23 17:50:49;;;;;;;8.63;7.83;;;24.90;42.10;;;;;;4976180;28;20460;-81
2022/03/23 17:53:16;;;;;;;10.37;8.03;;;24.90;42.10;;;;;;4976622;28;20902;-90
2022/03/23 17:59:07;;;;;;;7.80;6.83;;;25.00;42.40;;;;;;4976294;28;20913;-83
2022/03/23 18:01:34;;;;;;;9.70;6.10;;;24.90;42.50;;;;;;4982867;28;20445;-82
2022/03/23 18:04:03;;;;;;;6.57;5.93;;;24.90;42.50;;;;;;4979831;28;20441;-85
2022/03/23 18:06:30;;;;;;;7.50;6.80;;;24.90;42.20;;;;;;4975941;28;20445;-83
2022/03/23 18:08:57;;;;;;;6.47;5.97;;;24.90;42.10;;;;;;4974867;28;20492;-90
2022/03/23 18:11:24;;;;;;;6.93;6.30;;;25.00;42.00;;;;;;4975689;28;20452;-89
2022/03/23 18:13:51;;;;;;;6.77;6.17;;;25.00;41.90;;;;;;4975830;28;20447;-90
2022/03/23 18:16:19;;;;;;;6.93;6.33;;;25.00;41.90;;;;;;4975461;28;20453;-82
2022/03/23 18:18:46;;;;;;;6.87;5.80;;;25.00;41.80;;;;;;4975383;28;20456;-89
2022/03/23 18:21:14;;;;;;;6.50;6.00;;;25.00;41.80;;;;;;4975607;28;20457;-90
2022/03/23 18:23:41;;;;;;;6.77;6.17;;;25.10;41.80;;;;;;4975281;28;20457;-85
2022/03/23 18:26:08;;;;;;;5.87;5.27;;;25.00;41.70;;;;;;4975472;28;20445;-89
2022/03/23 18:28:36;;;;;;;7.00;6.30;;;25.20;41.80;;;;;;4975113;28;20508;-82
2022/03/23 18:31:03;;;;;;;6.57;5.87;;;25.10;41.80;;;;;;4975437;28;20468;-82
2022/03/23 18:33:32;;;;;;;6.13;5.53;;;25.00;41.70;;;;;;4975216;28;20484;-82
2022/03/23 18:35:58;;;;;;;6.50;6.00;;;25.10;41.80;;;;;;4974957;28;20460;-90
2022/03/23 18:38:25;;;;;;;8.33;7.63;;;25.10;41.80;;;;;;4975838;28;20801;-82
2022/03/23 18:40:53;;;;;;;9.13;8.40;;;25.10;41.70;;;;;;4975082;28;20951;-81
2022/03/23 18:43:20;;;;;;;8.77;7.97;;;25.10;41.70;;;;;;4975797;28;20452;-82
2022/03/23 18:45:46;;;;;;;7.50;6.90;;;25.10;41.70;;;;;;4975049;28;20448;-88
2022/03/23 18:48:13;;;;;;;7.00;6.47;;;25.10;41.70;;;;;;4974635;28;20488;-81
2022/03/23 18:50:42;;;;;;;6.90;6.40;;;25.10;41.70;;;;;;4974911;28;20446;-80
2022/03/23 18:53:08;;;;;;;7.67;6.60;;;25.10;41.70;;;;;;4975285;28;20451;-81
2022/03/23 18:55:35;;;;;;;6.53;5.77;;;25.00;42.90;;;;;;4975661;28;20456;-90
2022/03/23 18:58:02;;;;;;;7.83;6.07;;;25.10;43.40;;;;;;4974801;28;20956;-82
2022/03/23 19:00:29;;;;;;;6.97;6.37;;;25.00;43.00;;;;;;4975803;28;20445;-80
2022/03/23 19:02:55;;;;;;;6.73;6.10;;;25.00;42.60;;;;;;4975476;28;20449;-80
2022/03/23 19:05:22;;;;;;;6.67;6.17;;;25.10;42.50;;;;;;4975531;28;20452;-81
2022/03/23 19:07:52;;;;;;;7.40;6.60;;;25.10;42.40;;;;;;4974779;28;20452;-82
2022/03/23 19:10:20;;;;;;;6.20;5.60;;;25.10;42.30;;;;;;4974768;28;20512;-81
2022/03/23 19:12:47;;;;;;;7.10;6.50;;;25.10;42.20;;;;;;4974964;28;20849;-86
2022/03/23 19:15:14;;;;;;;8.20;6.90;;;25.10;42.20;;;;;;4974518;28;20968;-81
2022/03/23 19:17:41;;;;;;;6.63;5.80;;;25.10;42.10;;;;;;4974765;28;20936;-82
2022/03/23 19:20:08;;;;;;;6.27;5.67;;;25.10;42.10;;;;;;4976855;28;21035;-89
2022/03/23 19:22:35;;;;;;;7.73;5.93;;;25.10;42.10;;;;;;4978800;28;20540;-81
2022/03/23 19:25:05;;;;;;;6.73;6.13;;;25.10;42.10;;;;;;4982898;28;20473;-81
2022/03/23 19:27:32;;;;;;;6.90;6.30;;;25.10;42.20;;;;;;4979691;28;20508;-81
2022/03/23 19:29:59;;;;;;;8.70;6.83;;;25.10;42.20;;;;;;4978248;28;20485;-81
2022/03/23 19:32:26;;;;;;;7.00;6.40;;;25.10;42.20;;;;;;4978699;28;20449;-83
2022/03/23 19:34:52;;;;;;;7.17;6.57;;;25.10;42.20;;;;;;4978716;28;20453;-86
2022/03/23 19:37:19;;;;;;;10.27;7.10;;;25.10;42.10;;;;;;4979804;28;20456;-85
2022/03/23 19:39:46;;;;;;;7.60;6.67;;;25.10;42.20;;;;;;4980670;28;20472;-81
2022/03/23 19:42:14;;;;;;;6.80;6.00;;;25.10;42.30;;;;;;4979100;28;20453;-81
2022/03/23 19:44:43;;;;;;;6.80;6.20;;;25.10;42.30;;;;;;4979223;28;20453;-82
2022/03/23 19:47:10;;;;;;;6.27;5.67;;;25.10;42.30;;;;;;4978283;28;20488;-81
2022/03/23 19:49:37;;;;;;;8.30;6.50;;;25.10;42.30;;;;;;4978564;28;20532;-82
2022/03/23 19:52:04;;;;;;;6.17;5.67;;;25.10;42.20;;;;;;4978932;28;20445;-83
2022/03/23 19:54:33;;;;;;;5.73;5.23;;;25.10;42.40;;;;;;4978228;28;20445;-82
2022/03/23 19:57:00;;;;;;;7.73;6.37;;;25.10;42.40;;;;;;4977916;28;20492;-82
2022/03/23 19:59:28;;;;;;;6.20;5.63;;;25.10;42.40;;;;;;4977952;28;20452;-91
2022/03/23 20:01:54;;;;;;;6.50;5.70;;;25.10;42.40;;;;;;4977865;28;20467;-82
2022/03/23 20:04:21;;;;;;;7.03;6.37;;;25.00;42.30;;;;;;4978001;28;20793;-82
2022/03/23 20:06:48;;;;;;;6.97;6.37;;;25.10;42.30;;;;;;4977464;28;20444;-83
2022/03/23 20:09:15;;;;;;;6.60;6.07;;;25.00;42.30;;;;;;4977402;28;20975;-83
2022/03/23 20:11:42;;;;;;;6.60;6.00;;;25.00;42.30;;;;;;4978192;28;20449;-83
2022/03/23 20:14:09;;;;;;;6.70;6.10;;;25.10;42.40;;;;;;4978897;28;20454;-83
2022/03/23 20:16:38;;;;;;;6.30;5.73;;;25.10;42.40;;;;;;4977877;28;20470;-82
2022/03/23 20:19:05;;;;;;;7.00;6.40;;;25.00;42.40;;;;;;4977525;28;20952;-91
2022/03/23 20:21:33;;;;;;;6.37;5.87;;;25.10;42.40;;;;;;4977722;28;20445;-81
2022/03/23 20:24:01;;;;;;;6.00;5.50;;;25.00;42.40;;;;;;4977478;28;20445;-81
2022/03/23 20:26:27;;;;;;;6.97;6.47;;;25.20;42.50;;;;;;4977301;28;20453;-81
2022/03/23 20:28:54;;;;;;;6.40;5.90;;;25.00;42.40;;;;;;4977448;28;20489;-80
2022/03/23 20:31:21;;;;;;;6.40;5.90;;;25.00;42.40;;;;;;4976770;28;20955;-81
2022/03/23 20:33:49;;;;;;;5.73;5.23;;;25.00;42.50;;;;;;4977927;28;20552;-81
2022/03/23 20:36:16;;;;;;;7.20;6.60;;;25.00;42.50;;;;;;4977604;28;20449;-81
2022/03/23 20:38:44;;;;;;;9.67;5.83;;;25.00;42.50;;;;;;4977373;28;20816;-82
2022/03/23 20:41:12;;;;;;;6.97;6.30;;;25.00;42.50;;;;;;4977333;28;20811;-80
2022/03/23 20:43:38;;;;;;;7.10;6.50;;;25.20;42.60;;;;;;4977483;28;20537;-84